sensor_id;sensor_type;location;lat;lon;timestamp;P1;durP1;ratioP1;P2;durP2;ratioP2
67965;SDS011;54749;47.850;9.002;2023-01-15T00:02:11;6.68;;;1.95;;
67965;SDS011;54749;47.850;9.002;2023-01-15T00:04:42;4.40;;;1.50;;
67965;SDS011;54749;47.850;9.002;2023-01-15T00:07:09;4.03;;;1.20;;
67965;SDS011;54749;47.850;9.002;2023-01-15T00:09:36;3.67;;;1.27;;
67965;SDS011;54749;47.850;9.002;2023-01-15T00:12:03;3.47;;;1.10;;
67965;SDS011;54749;47.850;9.002;2023-01-15T00:14:31;3.70;;;1.05;;
67965;SDS011;54749;47.850;9.002;2023-01-15T00:16:57;3.13;;;1.00;;
67965;SDS011;54749;47.850;9.002;2023-01-15T00:19:25;4.37;;;1.20;;
67965;SDS011;54749;47.850;9.002;2023-01-15T00:21:52;3.40;;;1.10;;
67965;SDS011;54749;47.850;9.002;2023-01-15T00:24:20;3.63;;;1.20;;
67965;SDS011;54749;47.850;9.002;2023-01-15T00:27:07;5.60;;;1.15;;
67965;SDS011;54749;47.850;9.002;2023-01-15T00:29:55;3.97;;;1.00;;
67965;SDS011;54749;47.850;9.002;2023-01-15T00:32:21;3.97;;;1.13;;
67965;SDS011;54749;47.850;9.002;2023-01-15T00:34:49;6.68;;;1.33;;
67965;SDS011;54749;47.850;9.002;2023-01-15T00:37:16;4.85;;;1.15;;
67965;SDS011;54749;47.850;9.002;2023-01-15T00:39:43;4.25;;;1.30;;
67965;SDS011;54749;47.850;9.002;2023-01-15T00:42:10;4.13;;;1.13;;
67965;SDS011;54749;47.850;9.002;2023-01-15T00:44:37;4.13;;;1.20;;
67965;SDS011;54749;47.850;9.002;2023-01-15T00:47:05;3.35;;;0.90;;
67965;SDS011;54749;47.850;9.002;2023-01-15T00:49:36;5.30;;;1.20;;
67965;SDS011;54749;47.850;9.002;2023-01-15T00:52:02;4.25;;;1.10;;
67965;SDS011;54749;47.850;9.002;2023-01-15T00:54:30;3.22;;;0.90;;
67965;SDS011;54749;47.850;9.002;2023-01-15T00:56:58;3.67;;;1.10;;
67965;SDS011;54749;47.850;9.002;2023-01-15T00:59:26;3.22;;;0.70;;
67965;SDS011;54749;47.850;9.002;2023-01-15T01:01:53;5.55;;;1.30;;
67965;SDS011;54749;47.850;9.002;2023-01-15T01:04:20;4.90;;;1.15;;
67965;SDS011;54749;47.850;9.002;2023-01-15T01:06:47;3.38;;;1.08;;
67965;SDS011;54749;47.850;9.002;2023-01-15T01:09:14;2.87;;;1.00;;
67965;SDS011;54749;47.850;9.002;2023-01-15T01:11:42;2.75;;;0.90;;
67965;SDS011;54749;47.850;9.002;2023-01-15T01:14:10;3.42;;;1.20;;
67965;SDS011;54749;47.850;9.002;2023-01-15T01:16:37;3.13;;;1.00;;
67965;SDS011;54749;47.850;9.002;2023-01-15T01:19:13;3.42;;;1.10;;
67965;SDS011;54749;47.850;9.002;2023-01-15T01:21:43;4.60;;;1.00;;
67965;SDS011;54749;47.850;9.002;2023-01-15T01:24:12;8.52;;;4.25;;
67965;SDS011;54749;47.850;9.002;2023-01-15T01:26:40;3.90;;;1.55;;
67965;SDS011;54749;47.850;9.002;2023-01-15T01:29:14;3.28;;;1.08;;
67965;SDS011;54749;47.850;9.002;2023-01-15T01:31:43;3.95;;;1.00;;
67965;SDS011;54749;47.850;9.002;2023-01-15T01:34:10;6.93;;;1.10;;
67965;SDS011;54749;47.850;9.002;2023-01-15T01:36:39;3.42;;;0.95;;
67965;SDS011;54749;47.850;9.002;2023-01-15T01:39:12;4.47;;;1.30;;
67965;SDS011;54749;47.850;9.002;2023-01-15T01:41:41;3.75;;;1.08;;
67965;SDS011;54749;47.850;9.002;2023-01-15T01:47:04;5.40;;;1.43;;
67965;SDS011;54749;47.850;9.002;2023-01-15T01:49:44;3.40;;;1.00;;
67965;SDS011;54749;47.850;9.002;2023-01-15T01:52:14;3.35;;;1.00;;
67965;SDS011;54749;47.850;9.002;2023-01-15T01:54:46;2.83;;;0.90;;
67965;SDS011;54749;47.850;9.002;2023-01-15T01:57:15;3.88;;;1.45;;
67965;SDS011;54749;47.850;9.002;2023-01-15T01:59:45;3.03;;;0.90;;
67965;SDS011;54749;47.850;9.002;2023-01-15T02:02:15;3.55;;;1.20;;
67965;SDS011;54749;47.850;9.002;2023-01-15T02:04:45;5.32;;;1.00;;
67965;SDS011;54749;47.850;9.002;2023-01-15T02:07:12;3.10;;;0.90;;
67965;SDS011;54749;47.850;9.002;2023-01-15T02:09:39;4.07;;;1.10;;
67965;SDS011;54749;47.850;9.002;2023-01-15T02:12:18;2.83;;;0.90;;
67965;SDS011;54749;47.850;9.002;2023-01-15T02:18:01;3.40;;;0.80;;
67965;SDS011;54749;47.850;9.002;2023-01-15T02:20:38;3.75;;;0.80;;
67965;SDS011;54749;47.850;9.002;2023-01-15T02:23:25;3.22;;;0.90;;
67965;SDS011;54749;47.850;9.002;2023-01-15T02:28:58;5.10;;;0.77;;
67965;SDS011;54749;47.850;9.002;2023-01-15T02:31:35;2.50;;;0.70;;
67965;SDS011;54749;47.850;9.002;2023-01-15T02:34:24;2.72;;;0.73;;
67965;SDS011;54749;47.850;9.002;2023-01-15T02:37:10;5.05;;;1.20;;
67965;SDS011;54749;47.850;9.002;2023-01-15T02:39:41;3.87;;;1.40;;
67965;SDS011;54749;47.850;9.002;2023-01-15T02:42:12;5.20;;;2.30;;
67965;SDS011;54749;47.850;9.002;2023-01-15T02:44:46;4.80;;;1.40;;
67965;SDS011;54749;47.850;9.002;2023-01-15T02:47:18;7.80;;;4.55;;
67965;SDS011;54749;47.850;9.002;2023-01-15T02:49:51;4.03;;;1.70;;
67965;SDS011;54749;47.850;9.002;2023-01-15T02:52:29;9.03;;;5.57;;
67965;SDS011;54749;47.850;9.002;2023-01-15T02:55:07;2.83;;;1.00;;
67965;SDS011;54749;47.850;9.002;2023-01-15T02:57:44;2.83;;;0.80;;
67965;SDS011;54749;47.850;9.002;2023-01-15T03:00:15;3.42;;;1.20;;
67965;SDS011;54749;47.850;9.002;2023-01-15T03:02:48;5.68;;;1.92;;
67965;SDS011;54749;47.850;9.002;2023-01-15T03:05:21;9.23;;;5.63;;
67965;SDS011;54749;47.850;9.002;2023-01-15T03:07:53;7.85;;;2.35;;
67965;SDS011;54749;47.850;9.002;2023-01-15T03:10:46;4.35;;;0.90;;
67965;SDS011;54749;47.850;9.002;2023-01-15T03:13:20;4.82;;;1.80;;
67965;SDS011;54749;47.850;9.002;2023-01-15T03:15:59;5.32;;;2.08;;
67965;SDS011;54749;47.850;9.002;2023-01-15T03:21:37;3.95;;;1.25;;
67965;SDS011;54749;47.850;9.002;2023-01-15T03:24:10;8.02;;;3.53;;
67965;SDS011;54749;47.850;9.002;2023-01-15T03:26:39;4.43;;;1.95;;
67965;SDS011;54749;47.850;9.002;2023-01-15T03:29:07;4.22;;;1.90;;
67965;SDS011;54749;47.850;9.002;2023-01-15T03:31:35;19.17;;;11.77;;
67965;SDS011;54749;47.850;9.002;2023-01-15T03:34:03;9.85;;;5.97;;
67965;SDS011;54749;47.850;9.002;2023-01-15T03:36:32;7.60;;;4.25;;
67965;SDS011;54749;47.850;9.002;2023-01-15T03:39:01;9.25;;;4.00;;
67965;SDS011;54749;47.850;9.002;2023-01-15T03:44:20;9.77;;;4.20;;
67965;SDS011;54749;47.850;9.002;2023-01-15T03:58:03;7.20;;;2.20;;
67965;SDS011;54749;47.850;9.002;2023-01-15T04:00:43;6.53;;;2.78;;
67965;SDS011;54749;47.850;9.002;2023-01-15T04:03:17;9.30;;;3.95;;
67965;SDS011;54749;47.850;9.002;2023-01-15T04:05:48;14.23;;;8.23;;
67965;SDS011;54749;47.850;9.002;2023-01-15T04:08:18;4.95;;;2.42;;
67965;SDS011;54749;47.850;9.002;2023-01-15T04:10:52;4.97;;;1.70;;
67965;SDS011;54749;47.850;9.002;2023-01-15T04:13:26;3.33;;;1.15;;
67965;SDS011;54749;47.850;9.002;2023-01-15T04:15:57;3.97;;;1.00;;
67965;SDS011;54749;47.850;9.002;2023-01-15T04:18:25;5.03;;;1.70;;
67965;SDS011;54749;47.850;9.002;2023-01-15T04:20:52;7.85;;;3.35;;
67965;SDS011;54749;47.850;9.002;2023-01-15T04:23:21;12.40;;;1.83;;
67965;SDS011;54749;47.850;9.002;2023-01-15T04:25:49;29.77;;;15.90;;
67965;SDS011;54749;47.850;9.002;2023-01-15T04:28:16;13.90;;;4.97;;
67965;SDS011;54749;47.850;9.002;2023-01-15T04:30:43;19.27;;;11.50;;
67965;SDS011;54749;47.850;9.002;2023-01-15T04:33:10;11.98;;;6.82;;
67965;SDS011;54749;47.850;9.002;2023-01-15T04:35:37;19.93;;;11.30;;
67965;SDS011;54749;47.850;9.002;2023-01-15T04:38:04;27.77;;;17.83;;
67965;SDS011;54749;47.850;9.002;2023-01-15T04:40:31;27.17;;;16.83;;
67965;SDS011;54749;47.850;9.002;2023-01-15T04:43:17;6.88;;;3.40;;
67965;SDS011;54749;47.850;9.002;2023-01-15T04:46:02;23.05;;;15.15;;
67965;SDS011;54749;47.850;9.002;2023-01-15T04:48:29;23.50;;;12.70;;
67965;SDS011;54749;47.850;9.002;2023-01-15T04:51:00;38.28;;;24.80;;
67965;SDS011;54749;47.850;9.002;2023-01-15T04:53:29;22.35;;;13.90;;
67965;SDS011;54749;47.850;9.002;2023-01-15T04:56:03;9.43;;;4.82;;
67965;SDS011;54749;47.850;9.002;2023-01-15T04:58:30;9.45;;;5.35;;
67965;SDS011;54749;47.850;9.002;2023-01-15T05:00:58;33.40;;;20.53;;
67965;SDS011;54749;47.850;9.002;2023-01-15T05:03:26;25.00;;;14.00;;
67965;SDS011;54749;47.850;9.002;2023-01-15T05:05:54;21.40;;;13.55;;
67965;SDS011;54749;47.850;9.002;2023-01-15T05:08:21;38.78;;;20.50;;
67965;SDS011;54749;47.850;9.002;2023-01-15T05:10:48;13.43;;;7.47;;
67965;SDS011;54749;47.850;9.002;2023-01-15T05:13:15;26.70;;;13.60;;
67965;SDS011;54749;47.850;9.002;2023-01-15T05:15:42;28.95;;;14.95;;
67965;SDS011;54749;47.850;9.002;2023-01-15T05:18:11;26.40;;;14.27;;
67965;SDS011;54749;47.850;9.002;2023-01-15T05:20:41;31.33;;;17.17;;
67965;SDS011;54749;47.850;9.002;2023-01-15T05:23:08;27.13;;;17.02;;
67965;SDS011;54749;47.850;9.002;2023-01-15T05:25:36;9.60;;;4.87;;
67965;SDS011;54749;47.850;9.002;2023-01-15T05:28:03;5.95;;;2.85;;
67965;SDS011;54749;47.850;9.002;2023-01-15T05:30:30;5.32;;;2.50;;
67965;SDS011;54749;47.850;9.002;2023-01-15T05:32:57;21.48;;;12.20;;
67965;SDS011;54749;47.850;9.002;2023-01-15T05:35:24;10.43;;;4.97;;
67965;SDS011;54749;47.850;9.002;2023-01-15T05:37:51;19.03;;;10.00;;
67965;SDS011;54749;47.850;9.002;2023-01-15T05:40:18;11.35;;;5.15;;
67965;SDS011;54749;47.850;9.002;2023-01-15T05:42:45;11.23;;;5.40;;
67965;SDS011;54749;47.850;9.002;2023-01-15T05:45:12;8.27;;;4.07;;
67965;SDS011;54749;47.850;9.002;2023-01-15T05:47:39;5.95;;;2.70;;
67965;SDS011;54749;47.850;9.002;2023-01-15T05:50:06;8.97;;;3.30;;
67965;SDS011;54749;47.850;9.002;2023-01-15T05:52:33;14.68;;;7.35;;
67965;SDS011;54749;47.850;9.002;2023-01-15T05:55:00;12.57;;;7.05;;
67965;SDS011;54749;47.850;9.002;2023-01-15T05:57:27;8.93;;;4.10;;
67965;SDS011;54749;47.850;9.002;2023-01-15T05:59:54;12.07;;;6.20;;
67965;SDS011;54749;47.850;9.002;2023-01-15T06:02:22;6.50;;;2.50;;
67965;SDS011;54749;47.850;9.002;2023-01-15T06:04:49;7.60;;;3.92;;
67965;SDS011;54749;47.850;9.002;2023-01-15T06:07:16;8.75;;;3.00;;
67965;SDS011;54749;47.850;9.002;2023-01-15T06:09:44;13.57;;;7.78;;
67965;SDS011;54749;47.850;9.002;2023-01-15T06:12:11;12.55;;;5.65;;
67965;SDS011;54749;47.850;9.002;2023-01-15T06:14:38;13.43;;;6.60;;
67965;SDS011;54749;47.850;9.002;2023-01-15T06:17:04;13.85;;;6.63;;
67965;SDS011;54749;47.850;9.002;2023-01-15T06:19:32;4.90;;;2.60;;
67965;SDS011;54749;47.850;9.002;2023-01-15T06:21:59;12.07;;;6.03;;
67965;SDS011;54749;47.850;9.002;2023-01-15T06:24:26;4.20;;;1.70;;
67965;SDS011;54749;47.850;9.002;2023-01-15T06:26:52;21.60;;;11.97;;
67965;SDS011;54749;47.850;9.002;2023-01-15T06:29:20;24.35;;;13.38;;
67965;SDS011;54749;47.850;9.002;2023-01-15T06:31:46;14.57;;;7.88;;
67965;SDS011;54749;47.850;9.002;2023-01-15T06:34:15;13.77;;;6.57;;
67965;SDS011;54749;47.850;9.002;2023-01-15T06:36:42;9.63;;;4.07;;
67965;SDS011;54749;47.850;9.002;2023-01-15T06:39:10;6.93;;;3.23;;
67965;SDS011;54749;47.850;9.002;2023-01-15T06:41:37;7.55;;;3.75;;
67965;SDS011;54749;47.850;9.002;2023-01-15T06:44:22;11.43;;;5.90;;
67965;SDS011;54749;47.850;9.002;2023-01-15T06:47:15;7.20;;;1.70;;
67965;SDS011;54749;47.850;9.002;2023-01-15T06:49:47;7.05;;;3.10;;
67965;SDS011;54749;47.850;9.002;2023-01-15T06:52:16;10.67;;;4.17;;
67965;SDS011;54749;47.850;9.002;2023-01-15T06:54:44;11.13;;;5.78;;
67965;SDS011;54749;47.850;9.002;2023-01-15T06:57:10;8.50;;;4.05;;
67965;SDS011;54749;47.850;9.002;2023-01-15T06:59:38;5.53;;;1.92;;
67965;SDS011;54749;47.850;9.002;2023-01-15T07:02:04;17.52;;;9.68;;
67965;SDS011;54749;47.850;9.002;2023-01-15T07:04:32;15.77;;;7.73;;
67965;SDS011;54749;47.850;9.002;2023-01-15T07:06:59;16.15;;;7.13;;
67965;SDS011;54749;47.850;9.002;2023-01-15T07:09:26;12.90;;;4.50;;
67965;SDS011;54749;47.850;9.002;2023-01-15T07:11:53;6.78;;;2.20;;
67965;SDS011;54749;47.850;9.002;2023-01-15T07:14:21;9.43;;;2.20;;
67965;SDS011;54749;47.850;9.002;2023-01-15T07:16:50;9.53;;;2.37;;
67965;SDS011;54749;47.850;9.002;2023-01-15T07:19:18;5.18;;;1.52;;
67965;SDS011;54749;47.850;9.002;2023-01-15T07:21:45;8.07;;;4.28;;
67965;SDS011;54749;47.850;9.002;2023-01-15T07:24:13;4.90;;;2.22;;
67965;SDS011;54749;47.850;9.002;2023-01-15T07:26:40;4.75;;;1.10;;
67965;SDS011;54749;47.850;9.002;2023-01-15T07:29:08;6.27;;;1.47;;
67965;SDS011;54749;47.850;9.002;2023-01-15T07:31:35;5.63;;;1.20;;
67965;SDS011;54749;47.850;9.002;2023-01-15T07:34:03;3.90;;;0.98;;
67965;SDS011;54749;47.850;9.002;2023-01-15T07:36:30;3.13;;;0.90;;
67965;SDS011;54749;47.850;9.002;2023-01-15T07:38:58;4.35;;;1.10;;
67965;SDS011;54749;47.850;9.002;2023-01-15T07:41:24;9.23;;;1.33;;
67965;SDS011;54749;47.850;9.002;2023-01-15T07:44:11;4.32;;;1.30;;
67965;SDS011;54749;47.850;9.002;2023-01-15T07:46:56;7.30;;;1.90;;
67965;SDS011;54749;47.850;9.002;2023-01-15T07:49:43;5.95;;;1.85;;
67965;SDS011;54749;47.850;9.002;2023-01-15T07:52:17;8.48;;;3.80;;
67965;SDS011;54749;47.850;9.002;2023-01-15T07:54:46;4.10;;;1.13;;
67965;SDS011;54749;47.850;9.002;2023-01-15T07:57:14;8.27;;;2.65;;
67965;SDS011;54749;47.850;9.002;2023-01-15T07:59:43;8.07;;;3.50;;
67965;SDS011;54749;47.850;9.002;2023-01-15T08:02:10;7.82;;;2.95;;
67965;SDS011;54749;47.850;9.002;2023-01-15T08:04:39;6.05;;;2.40;;
67965;SDS011;54749;47.850;9.002;2023-01-15T08:07:06;7.23;;;3.47;;
67965;SDS011;54749;47.850;9.002;2023-01-15T08:09:34;3.40;;;1.10;;
67965;SDS011;54749;47.850;9.002;2023-01-15T08:12:02;9.43;;;5.18;;
67965;SDS011;54749;47.850;9.002;2023-01-15T08:14:48;6.50;;;2.95;;
67965;SDS011;54749;47.850;9.002;2023-01-15T08:17:37;7.25;;;3.25;;
67965;SDS011;54749;47.850;9.002;2023-01-15T08:20:07;5.38;;;2.70;;
67965;SDS011;54749;47.850;9.002;2023-01-15T08:22:37;7.20;;;3.70;;
67965;SDS011;54749;47.850;9.002;2023-01-15T08:25:04;9.30;;;6.28;;
67965;SDS011;54749;47.850;9.002;2023-01-15T08:27:33;5.40;;;3.00;;
67965;SDS011;54749;47.850;9.002;2023-01-15T08:30:00;3.38;;;1.15;;
67965;SDS011;54749;47.850;9.002;2023-01-15T08:32:27;3.10;;;0.95;;
67965;SDS011;54749;47.850;9.002;2023-01-15T08:34:54;2.80;;;0.80;;
67965;SDS011;54749;47.850;9.002;2023-01-15T08:37:21;2.92;;;0.90;;
67965;SDS011;54749;47.850;9.002;2023-01-15T08:39:51;3.03;;;0.90;;
67965;SDS011;54749;47.850;9.002;2023-01-15T08:42:19;2.88;;;0.85;;
67965;SDS011;54749;47.850;9.002;2023-01-15T08:44:47;2.70;;;0.80;;
67965;SDS011;54749;47.850;9.002;2023-01-15T08:47:15;2.63;;;0.90;;
67965;SDS011;54749;47.850;9.002;2023-01-15T08:49:43;2.95;;;0.80;;
67965;SDS011;54749;47.850;9.002;2023-01-15T08:52:10;3.13;;;0.90;;
67965;SDS011;54749;47.850;9.002;2023-01-15T08:54:37;2.53;;;0.70;;
67965;SDS011;54749;47.850;9.002;2023-01-15T08:57:05;2.50;;;0.70;;
67965;SDS011;54749;47.850;9.002;2023-01-15T08:59:34;2.37;;;0.70;;
67965;SDS011;54749;47.850;9.002;2023-01-15T09:02:01;2.30;;;0.68;;
67965;SDS011;54749;47.850;9.002;2023-01-15T09:04:29;2.20;;;0.60;;
67965;SDS011;54749;47.850;9.002;2023-01-15T09:06:56;2.15;;;0.50;;
67965;SDS011;54749;47.850;9.002;2023-01-15T09:09:23;2.03;;;0.50;;
67965;SDS011;54749;47.850;9.002;2023-01-15T09:11:50;2.20;;;0.53;;
67965;SDS011;54749;47.850;9.002;2023-01-15T09:14:17;2.03;;;0.50;;
67965;SDS011;54749;47.850;9.002;2023-01-15T09:17:04;2.05;;;0.50;;
67965;SDS011;54749;47.850;9.002;2023-01-15T09:19:31;2.03;;;0.50;;
67965;SDS011;54749;47.850;9.002;2023-01-15T09:21:58;2.10;;;0.60;;
67965;SDS011;54749;47.850;9.002;2023-01-15T09:24:25;2.07;;;0.50;;
67965;SDS011;54749;47.850;9.002;2023-01-15T09:26:52;2.13;;;0.50;;
67965;SDS011;54749;47.850;9.002;2023-01-15T09:29:19;2.00;;;0.50;;
67965;SDS011;54749;47.850;9.002;2023-01-15T09:31:46;2.10;;;0.50;;
67965;SDS011;54749;47.850;9.002;2023-01-15T09:34:13;2.00;;;0.50;;
67965;SDS011;54749;47.850;9.002;2023-01-15T09:36:40;2.07;;;0.50;;
67965;SDS011;54749;47.850;9.002;2023-01-15T09:39:08;1.90;;;0.40;;
67965;SDS011;54749;47.850;9.002;2023-01-15T09:41:54;2.17;;;0.60;;
67965;SDS011;54749;47.850;9.002;2023-01-15T09:44:38;1.88;;;0.50;;
67965;SDS011;54749;47.850;9.002;2023-01-15T09:47:22;2.08;;;0.50;;
67965;SDS011;54749;47.850;9.002;2023-01-15T09:50:14;2.23;;;0.50;;
67965;SDS011;54749;47.850;9.002;2023-01-15T09:55:31;2.15;;;0.52;;
67965;SDS011;54749;47.850;9.002;2023-01-15T09:58:01;2.20;;;0.60;;
67965;SDS011;54749;47.850;9.002;2023-01-15T10:00:33;2.03;;;0.50;;
67965;SDS011;54749;47.850;9.002;2023-01-15T10:09:12;1.90;;;0.50;;
67965;SDS011;54749;47.850;9.002;2023-01-15T10:11:49;2.00;;;0.55;;
67965;SDS011;54749;47.850;9.002;2023-01-15T10:14:53;1.98;;;0.50;;
67965;SDS011;54749;47.850;9.002;2023-01-15T10:17:29;2.00;;;0.50;;
67965;SDS011;54749;47.850;9.002;2023-01-15T10:20:05;2.20;;;0.60;;
67965;SDS011;54749;47.850;9.002;2023-01-15T10:25:46;3.80;;;0.75;;
67965;SDS011;54749;47.850;9.002;2023-01-15T10:30:53;2.27;;;0.60;;
67965;SDS011;54749;47.850;9.002;2023-01-15T10:36:19;5.68;;;1.30;;
67965;SDS011;54749;47.850;9.002;2023-01-15T10:44:29;2.60;;;0.70;;
67965;SDS011;54749;47.850;9.002;2023-01-15T10:47:01;2.40;;;0.60;;
67965;SDS011;54749;47.850;9.002;2023-01-15T10:49:29;2.30;;;0.70;;
67965;SDS011;54749;47.850;9.002;2023-01-15T10:51:57;2.40;;;0.70;;
67965;SDS011;54749;47.850;9.002;2023-01-15T11:02:52;2.40;;;0.60;;
67965;SDS011;54749;47.850;9.002;2023-01-15T11:05:24;2.08;;;0.50;;
67965;SDS011;54749;47.850;9.002;2023-01-15T11:07:51;2.30;;;0.60;;
67965;SDS011;54749;47.850;9.002;2023-01-15T11:10:39;2.13;;;0.50;;
67965;SDS011;54749;47.850;9.002;2023-01-15T11:13:15;2.10;;;0.60;;
67965;SDS011;54749;47.850;9.002;2023-01-15T11:16:10;2.30;;;0.60;;
67965;SDS011;54749;47.850;9.002;2023-01-15T11:19:00;2.53;;;0.70;;
67965;SDS011;54749;47.850;9.002;2023-01-15T11:21:47;2.55;;;0.80;;
67965;SDS011;54749;47.850;9.002;2023-01-15T11:24:16;3.50;;;1.30;;
67965;SDS011;54749;47.850;9.002;2023-01-15T11:26:46;2.72;;;0.80;;
67965;SDS011;54749;47.850;9.002;2023-01-15T11:29:15;2.88;;;0.55;;
67965;SDS011;54749;47.850;9.002;2023-01-15T11:31:54;2.35;;;0.65;;
67965;SDS011;54749;47.850;9.002;2023-01-15T11:34:21;2.30;;;0.60;;
67965;SDS011;54749;47.850;9.002;2023-01-15T11:36:48;2.30;;;0.60;;
67965;SDS011;54749;47.850;9.002;2023-01-15T11:39:27;2.03;;;0.60;;
67965;SDS011;54749;47.850;9.002;2023-01-15T11:41:57;2.30;;;0.60;;
67965;SDS011;54749;47.850;9.002;2023-01-15T11:44:54;2.30;;;0.70;;
67965;SDS011;54749;47.850;9.002;2023-01-15T11:47:51;3.75;;;1.08;;
67965;SDS011;54749;47.850;9.002;2023-01-15T11:50:51;3.33;;;1.00;;
67965;SDS011;54749;47.850;9.002;2023-01-15T11:53:26;3.10;;;1.02;;
67965;SDS011;54749;47.850;9.002;2023-01-15T11:55:58;3.10;;;1.00;;
67965;SDS011;54749;47.850;9.002;2023-01-15T11:58:28;5.22;;;1.50;;
67965;SDS011;54749;47.850;9.002;2023-01-15T12:00:58;6.22;;;3.08;;
67965;SDS011;54749;47.850;9.002;2023-01-15T12:03:27;8.57;;;4.97;;
67965;SDS011;54749;47.850;9.002;2023-01-15T12:05:57;16.40;;;10.40;;
67965;SDS011;54749;47.850;9.002;2023-01-15T12:22:12;32.10;;;19.90;;
67965;SDS011;54749;47.850;9.002;2023-01-15T12:32:42;12.90;;;8.18;;
67965;SDS011;54749;47.850;9.002;2023-01-15T12:35:31;32.42;;;22.60;;
67965;SDS011;54749;47.850;9.002;2023-01-15T12:38:07;24.60;;;14.95;;
67965;SDS011;54749;47.850;9.002;2023-01-15T12:41:00;4.97;;;1.92;;
67965;SDS011;54749;47.850;9.002;2023-01-15T12:43:33;12.27;;;7.63;;
67965;SDS011;54749;47.850;9.002;2023-01-15T12:46:21;9.25;;;4.97;;
67965;SDS011;54749;47.850;9.002;2023-01-15T12:49:01;13.27;;;7.93;;
67965;SDS011;54749;47.850;9.002;2023-01-15T12:51:40;7.45;;;2.75;;
67965;SDS011;54749;47.850;9.002;2023-01-15T12:54:14;9.00;;;2.78;;
67965;SDS011;54749;47.850;9.002;2023-01-15T12:57:33;31.10;;;18.40;;
67965;SDS011;54749;47.850;9.002;2023-01-15T12:59:43;11.20;;;5.40;;
67965;SDS011;54749;47.850;9.002;2023-01-15T13:02:21;12.85;;;5.60;;
67965;SDS011;54749;47.850;9.002;2023-01-15T13:07:40;15.18;;;6.10;;
67965;SDS011;54749;47.850;9.002;2023-01-15T13:10:23;11.77;;;4.40;;
67965;SDS011;54749;47.850;9.002;2023-01-15T13:12:52;10.63;;;4.35;;
67965;SDS011;54749;47.850;9.002;2023-01-15T13:15:23;11.95;;;4.68;;
67965;SDS011;54749;47.850;9.002;2023-01-15T13:18:04;25.60;;;12.73;;
67965;SDS011;54749;47.850;9.002;2023-01-15T13:20:48;12.75;;;5.30;;
67965;SDS011;54749;47.850;9.002;2023-01-15T13:37:26;6.30;;;2.47;;
67965;SDS011;54749;47.850;9.002;2023-01-15T13:40:00;8.70;;;4.35;;
67965;SDS011;54749;47.850;9.002;2023-01-15T13:42:32;5.25;;;2.00;;
67965;SDS011;54749;47.850;9.002;2023-01-15T13:45:02;10.57;;;3.28;;
67965;SDS011;54749;47.850;9.002;2023-01-15T13:47:31;8.52;;;2.42;;
67965;SDS011;54749;47.850;9.002;2023-01-15T13:50:03;8.33;;;2.60;;
67965;SDS011;54749;47.850;9.002;2023-01-15T13:52:38;16.83;;;10.00;;
67965;SDS011;54749;47.850;9.002;2023-01-15T13:55:09;14.73;;;9.23;;
67965;SDS011;54749;47.850;9.002;2023-01-15T13:57:42;20.58;;;13.77;;
67965;SDS011;54749;47.850;9.002;2023-01-15T14:03:02;12.63;;;7.07;;
67965;SDS011;54749;47.850;9.002;2023-01-15T14:05:56;5.80;;;2.80;;
67965;SDS011;54749;47.850;9.002;2023-01-15T14:08:44;9.43;;;5.10;;
67965;SDS011;54749;47.850;9.002;2023-01-15T14:25:38;6.28;;;2.30;;
67965;SDS011;54749;47.850;9.002;2023-01-15T14:28:30;8.00;;;3.85;;
67965;SDS011;54749;47.850;9.002;2023-01-15T14:31:26;6.20;;;2.00;;
67965;SDS011;54749;47.850;9.002;2023-01-15T14:42:05;7.13;;;2.42;;
67965;SDS011;54749;47.850;9.002;2023-01-15T14:44:57;6.60;;;2.33;;
67965;SDS011;54749;47.850;9.002;2023-01-15T14:47:28;9.95;;;4.15;;
67965;SDS011;54749;47.850;9.002;2023-01-15T15:06:43;5.75;;;3.30;;
67965;SDS011;54749;47.850;9.002;2023-01-15T15:09:13;4.38;;;1.83;;
67965;SDS011;54749;47.850;9.002;2023-01-15T15:11:47;4.73;;;1.80;;
67965;SDS011;54749;47.850;9.002;2023-01-15T15:14:35;6.65;;;2.35;;
67965;SDS011;54749;47.850;9.002;2023-01-15T15:17:06;8.93;;;4.40;;
67965;SDS011;54749;47.850;9.002;2023-01-15T15:19:46;7.55;;;3.58;;
67965;SDS011;54749;47.850;9.002;2023-01-15T15:22:19;19.27;;;11.27;;
67965;SDS011;54749;47.850;9.002;2023-01-15T15:24:48;15.70;;;9.70;;
67965;SDS011;54749;47.850;9.002;2023-01-15T15:27:21;12.73;;;5.78;;
67965;SDS011;54749;47.850;9.002;2023-01-15T15:29:49;6.07;;;2.63;;
67965;SDS011;54749;47.850;9.002;2023-01-15T15:32:17;3.85;;;1.15;;
67965;SDS011;54749;47.850;9.002;2023-01-15T15:34:48;8.70;;;2.17;;
67965;SDS011;54749;47.850;9.002;2023-01-15T15:37:21;4.97;;;1.80;;
67965;SDS011;54749;47.850;9.002;2023-01-15T15:39:57;6.53;;;1.40;;
67965;SDS011;54749;47.850;9.002;2023-01-15T15:42:33;3.80;;;1.00;;
67965;SDS011;54749;47.850;9.002;2023-01-15T15:45:26;5.53;;;1.70;;
67965;SDS011;54749;47.850;9.002;2023-01-15T15:48:18;3.00;;;0.98;;
67965;SDS011;54749;47.850;9.002;2023-01-15T15:51:22;4.73;;;1.70;;
67965;SDS011;54749;47.850;9.002;2023-01-15T15:54:00;4.07;;;1.00;;
67965;SDS011;54749;47.850;9.002;2023-01-15T15:59:36;3.33;;;1.10;;
67965;SDS011;54749;47.850;9.002;2023-01-15T16:05:14;4.43;;;1.50;;
67965;SDS011;54749;47.850;9.002;2023-01-15T16:07:49;7.00;;;1.63;;
67965;SDS011;54749;47.850;9.002;2023-01-15T16:10:20;7.55;;;2.13;;
67965;SDS011;54749;47.850;9.002;2023-01-15T16:12:52;7.93;;;1.90;;
67965;SDS011;54749;47.850;9.002;2023-01-15T16:15:27;6.28;;;1.85;;
67965;SDS011;54749;47.850;9.002;2023-01-15T16:17:57;7.70;;;1.77;;
67965;SDS011;54749;47.850;9.002;2023-01-15T16:20:26;4.70;;;1.40;;
67965;SDS011;54749;47.850;9.002;2023-01-15T16:22:54;9.40;;;2.53;;
67965;SDS011;54749;47.850;9.002;2023-01-15T16:25:25;6.75;;;2.40;;
67965;SDS011;54749;47.850;9.002;2023-01-15T16:27:56;6.80;;;1.90;;
67965;SDS011;54749;47.850;9.002;2023-01-15T16:30:24;10.03;;;2.53;;
67965;SDS011;54749;47.850;9.002;2023-01-15T16:32:51;8.90;;;1.60;;
67965;SDS011;54749;47.850;9.002;2023-01-15T16:35:21;4.40;;;1.60;;
67965;SDS011;54749;47.850;9.002;2023-01-15T16:37:51;7.20;;;1.60;;
67965;SDS011;54749;47.850;9.002;2023-01-15T16:40:23;5.70;;;1.05;;
67965;SDS011;54749;47.850;9.002;2023-01-15T16:43:10;7.40;;;1.93;;
67965;SDS011;54749;47.850;9.002;2023-01-15T16:48:43;9.48;;;1.63;;
67965;SDS011;54749;47.850;9.002;2023-01-15T16:54:01;15.15;;;4.57;;
67965;SDS011;54749;47.850;9.002;2023-01-15T16:59:03;18.35;;;5.60;;
67965;SDS011;54749;47.850;9.002;2023-01-15T17:01:41;11.25;;;3.90;;
67965;SDS011;54749;47.850;9.002;2023-01-15T17:04:22;12.23;;;4.30;;
67965;SDS011;54749;47.850;9.002;2023-01-15T17:07:17;9.40;;;3.95;;
67965;SDS011;54749;47.850;9.002;2023-01-15T17:09:48;21.43;;;9.27;;
67965;SDS011;54749;47.850;9.002;2023-01-15T17:14:51;41.50;;;16.23;;
67965;SDS011;54749;47.850;9.002;2023-01-15T17:17:23;18.48;;;8.70;;
67965;SDS011;54749;47.850;9.002;2023-01-15T17:19:54;13.88;;;6.38;;
67965;SDS011;54749;47.850;9.002;2023-01-15T17:22:24;12.77;;;6.30;;
67965;SDS011;54749;47.850;9.002;2023-01-15T17:24:57;11.02;;;6.22;;
67965;SDS011;54749;47.850;9.002;2023-01-15T17:27:27;10.88;;;4.80;;
67965;SDS011;54749;47.850;9.002;2023-01-15T17:29:55;10.07;;;4.68;;
67965;SDS011;54749;47.850;9.002;2023-01-15T17:32:29;8.77;;;3.80;;
67965;SDS011;54749;47.850;9.002;2023-01-15T17:35:01;9.13;;;3.10;;
67965;SDS011;54749;47.850;9.002;2023-01-15T17:37:28;6.32;;;2.10;;
67965;SDS011;54749;47.850;9.002;2023-01-15T17:39:55;9.95;;;4.18;;
67965;SDS011;54749;47.850;9.002;2023-01-15T17:42:23;10.13;;;3.97;;
67965;SDS011;54749;47.850;9.002;2023-01-15T17:44:49;21.30;;;6.53;;
67965;SDS011;54749;47.850;9.002;2023-01-15T17:47:16;25.70;;;9.80;;
67965;SDS011;54749;47.850;9.002;2023-01-15T17:49:43;30.45;;;9.77;;